createdAt,value
2023-05-08T05:00:28.637Z,11.93
2023-05-08T05:02:55.390Z,11.65
2023-05-08T05:05:23.527Z,14.40
2023-05-08T05:07:50.734Z,12.75
2023-05-08T05:10:19.732Z,14.82
2023-05-08T05:12:46.587Z,11.45
2023-05-08T05:15:14.857Z,12.00
2023-05-08T05:17:41.860Z,13.02
2023-05-08T05:20:10.577Z,15.10
2023-05-08T05:22:37.382Z,13.50
2023-05-08T05:29:00.382Z,12.75
2023-05-08T05:31:37.838Z,13.52
2023-05-08T05:34:13.422Z,13.50
2023-05-08T05:36:56.448Z,13.40
2023-05-08T05:39:23.825Z,13.10
2023-05-08T05:41:58.718Z,11.40
2023-05-08T05:44:36.106Z,14.20
2023-05-08T05:47:15.427Z,12.85
2023-05-08T05:49:50.205Z,14.85
2023-05-08T05:52:17.000Z,10.60
2023-05-08T05:54:44.219Z,12.40
2023-05-08T05:57:13.157Z,11.30
2023-05-08T05:59:41.605Z,12.55
2023-05-08T06:02:10.458Z,14.63
2023-05-08T06:04:38.542Z,9.52
2023-05-08T06:07:06.847Z,13.15
2023-05-08T06:09:34.130Z,11.75
2023-05-08T06:12:00.875Z,11.20
2023-05-08T06:14:28.474Z,11.32
2023-05-08T06:16:55.074Z,10.50
2023-05-08T06:19:24.499Z,11.60
2023-05-08T06:21:52.100Z,11.85
2023-05-08T06:24:19.508Z,9.85
2023-05-08T06:26:46.824Z,10.70
2023-05-08T06:29:14.125Z,10.07
2023-05-08T06:31:40.755Z,10.10
2023-05-08T06:34:08.308Z,12.18
2023-05-08T06:36:34.979Z,10.05
2023-05-08T06:39:05.609Z,9.68
2023-05-08T06:42:11.694Z,7.90
2023-05-08T06:44:45.371Z,13.05
2023-05-08T06:47:15.319Z,11.02
2023-05-08T06:49:42.993Z,8.30
2023-05-08T06:52:17.009Z,8.85
2023-05-08T06:54:52.682Z,9.15
2023-05-08T06:57:32.295Z,9.95
2023-05-08T07:00:14.079Z,8.93
2023-05-08T07:02:45.527Z,8.00
2023-05-08T07:05:25.088Z,7.63
2023-05-08T07:07:56.852Z,8.60
2023-05-08T07:10:30.124Z,8.65
2023-05-08T07:16:20.565Z,9.60
2023-05-08T08:09:44.576Z,6.95
2023-05-08T08:23:08.695Z,6.13
2023-05-08T08:25:35.343Z,7.22
2023-05-08T08:28:02.601Z,6.00
2023-05-08T08:30:29.317Z,5.70
2023-05-08T08:32:56.324Z,5.45
2023-05-08T08:35:29.497Z,8.95
2023-05-08T08:37:57.008Z,5.30
2023-05-08T08:40:23.745Z,7.05
2023-05-08T08:42:51.208Z,5.47
2023-05-08T08:45:17.814Z,6.60
2023-05-08T08:47:45.539Z,5.80
2023-05-08T08:50:14.941Z,5.53
2023-05-08T08:52:56.064Z,6.60
2023-05-08T08:55:25.553Z,6.43
2023-05-08T08:58:33.733Z,6.18
2023-05-08T09:01:01.059Z,7.32
2023-05-08T09:03:28.622Z,5.18
2023-05-08T09:05:55.449Z,5.63
2023-05-08T09:08:22.682Z,5.70
2023-05-08T09:10:49.417Z,4.72
2023-05-08T09:13:18.846Z,6.28
2023-05-08T09:15:46.594Z,4.82
2023-05-08T09:18:13.940Z,6.00
2023-05-08T09:20:41.031Z,5.13
2023-05-08T09:23:08.649Z,8.68
2023-05-08T09:25:46.142Z,4.20
2023-05-08T09:28:26.729Z,5.05
2023-05-08T09:30:57.119Z,6.72
2023-05-08T09:33:28.995Z,5.78
2023-05-08T09:35:57.452Z,5.10
2023-05-08T09:38:39.625Z,8.27
2023-05-08T09:41:17.020Z,5.40
2023-05-08T09:44:00.170Z,6.30
2023-05-08T09:46:27.378Z,7.30
2023-05-08T09:48:59.808Z,4.70
2023-05-08T09:51:28.415Z,4.97
2023-05-08T09:53:58.048Z,5.82
2023-05-08T09:56:35.678Z,7.38
2023-05-08T09:59:04.881Z,8.18
2023-05-08T10:01:32.946Z,7.10
2023-05-08T10:04:01.021Z,5.13
2023-05-08T10:06:28.863Z,4.88
2023-05-08T10:09:12.943Z,6.40
2023-05-08T10:11:41.335Z,4.90
2023-05-08T10:14:09.375Z,8.00
2023-05-08T10:16:43.680Z,4.60
2023-05-08T10:19:14.763Z,5.55
2023-05-08T10:21:46.669Z,5.47
2023-05-08T10:24:27.988Z,5.07
2023-05-08T10:27:19.584Z,7.18
2023-05-08T10:29:54.081Z,5.50
2023-05-08T10:32:23.016Z,5.03
2023-05-08T10:37:20.256Z,4.72
2023-05-08T10:39:49.786Z,5.72
2023-05-08T10:44:44.379Z,5.07
2023-05-08T10:47:25.219Z,5.05
2023-05-08T10:49:59.162Z,5.63
2023-05-08T10:53:03.666Z,6.78
2023-05-08T10:55:33.399Z,7.80
2023-05-08T10:58:09.041Z,6.93
2023-05-08T11:00:59.834Z,8.00
2023-05-08T11:03:31.958Z,7.57
2023-05-08T11:06:01.846Z,7.22
2023-05-08T11:08:30.733Z,6.82
2023-05-08T11:11:00.672Z,8.77
2023-05-08T11:14:06.168Z,7.97
2023-05-08T11:16:54.938Z,6.28
2023-05-08T11:22:19.400Z,9.57
2023-05-08T11:27:43.496Z,10.23
2023-05-08T11:30:39.304Z,9.00
2023-05-08T11:33:07.255Z,10.57
2023-05-08T11:36:01.421Z,8.15
2023-05-08T11:38:36.223Z,8.88
2023-05-08T11:41:05.430Z,8.18
2023-05-08T11:43:38.255Z,11.23
2023-05-08T11:46:14.885Z,7.47
2023-05-08T11:48:42.626Z,7.07
2023-05-08T11:51:10.205Z,8.43
2023-05-08T11:53:38.630Z,9.27
2023-05-08T11:56:06.039Z,12.25
2023-05-08T11:58:33.290Z,8.75
2023-05-08T12:01:01.030Z,9.02
2023-05-08T12:03:27.874Z,12.25
2023-05-08T12:05:59.632Z,11.07
2023-05-08T12:08:27.025Z,7.47
2023-05-08T12:10:57.003Z,7.57
2023-05-08T12:13:28.226Z,9.27
2023-05-08T12:15:56.960Z,7.97
2023-05-08T12:18:25.720Z,8.15
2023-05-08T12:20:54.217Z,7.65
2023-05-08T12:23:21.062Z,10.85
2023-05-08T12:25:48.462Z,8.00
2023-05-08T12:28:15.781Z,17.48
2023-05-08T12:30:43.237Z,7.93
2023-05-08T12:33:11.067Z,8.15
2023-05-08T12:35:40.201Z,8.48
2023-05-08T12:38:08.812Z,11.68
2023-05-08T12:40:40.761Z,8.35
2023-05-08T12:43:08.299Z,9.57
2023-05-08T12:45:39.303Z,8.20
2023-05-08T12:48:08.412Z,7.65
2023-05-08T12:50:37.318Z,6.22
2023-05-08T12:53:06.129Z,6.80
2023-05-08T12:55:35.295Z,6.50
2023-05-08T12:58:07.734Z,9.35
2023-05-08T13:00:40.236Z,7.30
2023-05-08T13:03:08.784Z,9.05
2023-05-08T13:05:38.101Z,8.23
2023-05-08T13:08:09.630Z,6.72
2023-05-08T13:10:56.622Z,7.40
2023-05-08T13:13:26.313Z,6.78
2023-05-08T13:15:55.432Z,8.63
2023-05-08T13:20:51.456Z,27.88
2023-05-08T13:23:18.763Z,10.85
2023-05-08T13:25:45.404Z,7.25
2023-05-08T13:28:12.368Z,6.40
2023-05-08T13:30:39.805Z,7.65
2023-05-08T13:33:06.501Z,7.53
2023-05-08T13:35:34.484Z,8.80
2023-05-08T13:38:01.615Z,7.25
2023-05-08T13:40:29.221Z,5.85
2023-05-08T13:42:56.017Z,7.20
2023-05-08T13:45:23.211Z,7.82
2023-05-08T13:47:50.615Z,9.15
2023-05-08T13:50:20.175Z,8.02
2023-05-08T13:52:46.767Z,6.75
2023-05-08T13:55:14.446Z,7.05
2023-05-08T13:57:41.297Z,5.80
2023-05-08T14:00:09.432Z,9.80
2023-05-08T14:02:42.981Z,8.48
2023-05-08T14:05:10.426Z,6.95
2023-05-08T14:07:37.142Z,6.00
2023-05-08T14:10:05.036Z,5.65
2023-05-08T14:12:36.473Z,6.97
2023-05-08T14:15:07.160Z,6.50
2023-05-08T14:17:34.159Z,9.27
2023-05-08T14:20:00.959Z,5.97
2023-05-08T14:22:27.983Z,8.85
2023-05-08T14:24:55.098Z,6.50
2023-05-08T14:27:22.203Z,8.25
2023-05-08T14:29:49.209Z,14.25
2023-05-08T14:32:16.649Z,12.13
2023-05-08T14:34:43.268Z,10.40
2023-05-08T14:37:11.579Z,8.65
2023-05-08T14:39:38.949Z,9.98
2023-05-08T14:44:38.793Z,12.43
2023-05-08T14:47:08.080Z,12.05
2023-05-08T14:49:39.721Z,10.07
2023-05-08T14:52:08.001Z,10.95
2023-05-08T14:54:35.859Z,9.63
2023-05-08T14:57:08.745Z,11.68
2023-05-08T14:59:36.502Z,12.48
2023-05-08T15:02:04.718Z,12.48
2023-05-08T15:04:32.360Z,9.50
2023-05-08T15:06:59.462Z,8.65
2023-05-08T15:09:27.046Z,10.15
2023-05-08T15:11:57.043Z,9.40
2023-05-08T15:14:24.986Z,8.93
2023-05-08T15:16:52.151Z,9.35
2023-05-08T15:19:19.645Z,11.07
2023-05-08T15:21:46.796Z,10.43
2023-05-08T15:24:14.265Z,11.20
2023-05-08T15:26:41.566Z,11.30
2023-05-08T15:29:08.989Z,12.75
2023-05-08T15:31:35.857Z,12.50
2023-05-08T15:34:05.010Z,13.60
2023-05-08T15:36:34.085Z,14.90
2023-05-08T15:39:01.530Z,13.68
2023-05-08T15:41:28.466Z,13.13
2023-05-08T15:43:56.063Z,13.02
2023-05-08T15:46:23.147Z,14.38
2023-05-08T15:48:50.606Z,12.95
2023-05-08T15:51:18.032Z,17.20
2023-05-08T15:53:45.571Z,16.70
2023-05-08T15:56:12.695Z,13.95
2023-05-08T15:58:40.951Z,14.30
2023-05-08T16:01:08.877Z,11.55
2023-05-08T16:03:36.331Z,12.70
2023-05-08T16:06:04.669Z,14.60
2023-05-08T16:08:32.485Z,14.25
2023-05-08T16:11:00.250Z,12.43
2023-05-08T16:13:28.535Z,13.48
2023-05-08T16:15:55.262Z,13.25
2023-05-08T16:18:28.608Z,13.32
2023-05-08T16:20:55.485Z,13.40
2023-05-08T16:23:23.262Z,11.50
2023-05-08T16:25:50.144Z,12.98
2023-05-08T16:28:17.615Z,10.23
2023-05-08T16:30:44.572Z,18.95
2023-05-08T16:33:12.870Z,10.18
2023-05-08T16:35:41.698Z,9.30
2023-05-08T16:38:09.045Z,10.57
2023-05-08T16:40:35.828Z,11.75
2023-05-08T16:43:02.859Z,9.85
2023-05-08T16:45:29.404Z,10.93
2023-05-08T16:47:56.840Z,12.13
2023-05-08T16:50:23.864Z,11.15
2023-05-08T16:52:51.011Z,11.73
2023-05-08T16:55:17.788Z,12.98
2023-05-08T16:57:44.831Z,11.77
2023-05-08T17:00:12.385Z,9.52
2023-05-08T17:02:39.582Z,9.48
2023-05-08T17:05:06.954Z,8.95
2023-05-08T17:07:34.275Z,10.35
2023-05-08T17:10:01.691Z,11.18
2023-05-08T17:12:29.476Z,10.02
2023-05-08T17:14:56.942Z,11.90
2023-05-08T17:17:24.712Z,13.13
2023-05-08T17:19:57.124Z,9.00
2023-05-08T17:22:24.842Z,9.07
2023-05-08T17:24:52.217Z,10.70
2023-05-08T17:27:25.650Z,9.73
2023-05-08T17:29:57.088Z,7.80
2023-05-08T17:33:20.944Z,9.88
2023-05-08T17:35:50.808Z,10.65
2023-05-08T17:38:19.462Z,11.70
2023-05-08T17:40:48.193Z,11.32
2023-05-08T17:43:20.627Z,11.13
2023-05-08T17:45:57.668Z,12.20
2023-05-08T17:48:25.768Z,11.30
2023-05-08T17:50:56.516Z,10.38
2023-05-08T17:53:26.410Z,9.52
2023-05-08T17:55:54.367Z,10.02
2023-05-08T17:58:27.936Z,11.05
2023-05-08T18:00:57.915Z,11.07
2023-05-08T18:03:27.102Z,12.70
2023-05-08T18:05:56.802Z,15.23
2023-05-08T18:08:24.755Z,17.58
2023-05-08T18:10:52.359Z,12.30
2023-05-08T18:13:21.294Z,12.33
2023-05-08T18:15:48.182Z,11.77
2023-05-08T18:18:15.157Z,14.00
2023-05-08T18:20:41.740Z,11.98
2023-05-08T18:23:09.185Z,11.63
2023-05-08T18:25:36.259Z,14.50
2023-05-08T18:28:03.350Z,15.63
2023-05-08T18:30:31.493Z,13.25
2023-05-08T18:32:58.593Z,17.08
2023-05-08T18:35:25.801Z,14.15
2023-05-08T18:37:53.380Z,14.25
2023-05-08T18:40:20.150Z,18.67
2023-05-08T18:42:47.754Z,18.17
2023-05-08T18:45:14.617Z,21.00
2023-05-08T18:47:42.040Z,15.73
2023-05-08T18:50:09.416Z,19.70
2023-05-08T18:52:36.641Z,18.83
2023-05-08T18:55:03.750Z,19.38
2023-05-08T18:57:31.491Z,16.10
2023-05-08T18:59:58.718Z,16.65
2023-05-08T19:02:29.258Z,20.50
2023-05-08T19:04:58.526Z,17.20
2023-05-08T19:07:25.981Z,16.98
2023-05-08T19:09:55.660Z,18.52
2023-05-08T19:12:23.643Z,16.58
2023-05-08T19:14:51.557Z,17.52
2023-05-08T19:17:18.772Z,18.13
2023-05-08T19:19:46.268Z,17.25
2023-05-08T19:22:13.568Z,17.23
2023-05-08T19:24:41.258Z,18.13
2023-05-08T19:27:11.321Z,13.32
2023-05-08T19:29:38.806Z,12.43
2023-05-08T19:32:05.624Z,11.98
2023-05-08T19:34:33.746Z,10.23
2023-05-08T19:37:03.600Z,8.65
2023-05-08T19:39:35.051Z,8.30
2023-05-08T19:42:03.917Z,10.18
2023-05-08T19:44:32.611Z,10.00
2023-05-08T19:47:03.152Z,9.85
2023-05-08T19:49:31.034Z,7.53
2023-05-08T19:51:58.525Z,6.97
2023-05-08T19:54:25.388Z,10.77
2023-05-08T19:56:52.683Z,9.40
2023-05-08T19:59:19.292Z,7.93
2023-05-08T20:01:46.713Z,9.05
2023-05-08T20:04:13.634Z,7.20
2023-05-08T20:06:41.104Z,8.20
2023-05-08T20:09:07.986Z,8.07
2023-05-08T20:11:35.317Z,8.57
2023-05-08T20:14:02.083Z,10.20
2023-05-08T20:16:29.762Z,9.27
2023-05-08T20:18:56.914Z,9.52
2023-05-08T20:21:24.255Z,10.85
2023-05-08T20:23:50.986Z,9.07
2023-05-08T20:26:18.428Z,9.00
2023-05-08T20:28:45.041Z,9.85
